Terminal Aerodrome Forecast
Issued by NWS Sioux Falls, SD

Home | Current Version | Previous Version | Text Only | Print | Product List | Glossary On
Versions: 1 2 3 4 5 6 7 8 9 10 11 12 13
000
FTUS43 KFSD 271146 AAA
TAFHON
TAF AMD
KHON 271146Z 2712/2812 16005KT 5SM BR SCT004 BKN100
      TEMPO 2712/2714 3SM BR BKN004
     FM271600 18009KT P6SM BKN100
     FM280000 18005KT P6SM BKN050
     FM280600 15006KT P6SM SKC=

USA.gov is the U.S. government's official web portal to all federal, state and local government web resources and services.